Time;durP1;ratioP1;P1;durP2;ratioP2;P2;SDS_P1;SDS_P2;PMS_P1;PMS_P2;Temp;Humidity;BMP_temperature;BMP_pressure;BME280_temperature;BME280_humidity;BME280_pressure;Samples;Min_cycle;Max_cycle;Signal;HPM_P1;HPM_P2
2023/10/24 00:00:19;;;;;;;5.00;4.03;;;10.10;99.90;;;;;;5044885;28;20468;-40
2023/10/24 00:02:44;;;;;;;5.22;3.92;;;10.00;99.90;;;;;;5042655;28;20552;-40
2023/10/24 00:05:10;;;;;;;4.90;4.03;;;10.00;99.90;;;;;;5051734;28;20025;-38
2023/10/24 00:07:35;;;;;;;4.85;4.35;;;10.10;99.90;;;;;;5045050;28;20018;-35
2023/10/24 00:10:02;;;;;;;4.93;4.18;;;10.10;99.90;;;;;;5049135;28;20362;-38
2023/10/24 00:12:28;;;;;;;6.53;4.22;;;10.10;99.90;;;;;;5043841;28;20028;-38
2023/10/24 00:14:57;;;;;;;6.20;4.85;;;10.10;99.90;;;;;;5049714;28;20116;-41
2023/10/24 00:17:24;;;;;;;6.03;4.75;;;10.10;99.90;;;;;;5047236;28;20029;-39
2023/10/24 00:19:49;;;;;;;5.72;4.95;;;10.00;99.90;;;;;;5045241;28;20056;-42
2023/10/24 00:22:15;;;;;;;5.95;4.72;;;10.00;99.90;;;;;;5052106;28;20071;-36
2023/10/24 00:24:40;;;;;;;6.90;4.97;;;10.00;99.90;;;;;;5046387;28;20055;-32
2023/10/24 00:27:06;;;;;;;6.40;4.13;;;10.00;99.90;;;;;;5046530;28;20045;-33
2023/10/24 00:29:47;;;;;;;6.45;4.15;;;9.90;99.90;;;;;;5016498;28;20049;-31
2023/10/24 00:32:12;;;;;;;5.72;4.05;;;10.00;99.90;;;;;;5046755;28;20082;-33
2023/10/24 00:34:38;;;;;;;5.03;4.13;;;10.00;99.90;;;;;;5026280;28;20029;-32
2023/10/24 00:37:04;;;;;;;6.13;3.80;;;10.00;99.90;;;;;;5045187;28;20032;-32
2023/10/24 00:39:29;;;;;;;4.35;3.67;;;10.00;99.90;;;;;;5044670;28;20036;-34
2023/10/24 00:41:55;;;;;;;4.70;3.90;;;10.00;99.90;;;;;;5046529;28;20104;-40
2023/10/24 00:44:21;;;;;;;4.88;4.00;;;9.80;99.90;;;;;;5046077;28;20039;-38
2023/10/24 00:46:47;;;;;;;5.53;4.25;;;9.70;99.90;;;;;;5045079;28;20025;-38
2023/10/24 00:49:13;;;;;;;6.25;4.78;;;9.60;99.90;;;;;;5045965;28;20024;-40
2023/10/24 00:51:40;;;;;;;6.30;3.92;;;9.70;99.90;;;;;;5045102;28;20445;-39
2023/10/24 00:54:08;;;;;;;4.70;3.58;;;9.70;99.90;;;;;;5045974;28;20028;-40
2023/10/24 00:56:34;;;;;;;4.93;4.43;;;9.70;99.90;;;;;;5043325;28;20610;-39
2023/10/24 00:59:02;;;;;;;6.13;4.78;;;9.60;99.90;;;;;;5048461;28;20490;-37
2023/10/24 01:01:29;;;;;;;4.97;3.72;;;9.50;99.90;;;;;;5049777;28;20025;-39
2023/10/24 01:03:58;;;;;;;3.95;3.58;;;9.50;99.90;;;;;;5045220;28;20032;-38
2023/10/24 01:06:24;;;;;;;5.05;3.80;;;9.50;99.90;;;;;;5053555;28;20159;-41
2023/10/24 01:08:50;;;;;;;5.45;4.13;;;9.60;99.90;;;;;;5029806;28;20386;-41
2023/10/24 01:11:16;;;;;;;4.88;3.70;;;9.60;99.90;;;;;;5049380;28;20028;-38
2023/10/24 01:13:42;;;;;;;7.28;4.55;;;9.70;99.90;;;;;;5049742;28;20383;-38
2023/10/24 01:16:07;;;;;;;6.03;3.92;;;9.70;99.90;;;;;;5039866;28;20036;-38
2023/10/24 01:18:33;;;;;;;5.10;3.97;;;9.80;99.90;;;;;;5047638;28;20563;-40
2023/10/24 01:20:59;;;;;;;7.88;4.45;;;9.80;99.90;;;;;;5046979;28;20087;-37
2023/10/24 01:23:28;;;;;;;4.93;4.13;;;9.80;99.90;;;;;;5045746;28;20059;-41
2023/10/24 01:25:56;;;;;;;5.20;4.20;;;9.80;99.90;;;;;;5028457;28;20844;-38
2023/10/24 01:28:24;;;;;;;5.03;4.53;;;9.70;99.90;;;;;;5025214;28;20036;-40
2023/10/24 01:30:50;;;;;;;5.70;4.50;;;9.70;99.90;;;;;;5043043;28;20078;-40
2023/10/24 01:33:16;;;;;;;5.25;3.90;;;9.70;99.90;;;;;;5049235;28;20033;-33
2023/10/24 01:35:42;;;;;;;5.78;4.32;;;9.70;99.90;;;;;;5043344;28;20051;-31
2023/10/24 01:38:07;;;;;;;5.13;4.63;;;9.60;99.90;;;;;;5026101;28;20032;-34
2023/10/24 01:40:33;;;;;;;5.68;4.60;;;9.60;99.90;;;;;;5046162;28;20032;-31
2023/10/24 01:42:59;;;;;;;5.47;4.15;;;9.60;99.90;;;;;;5046431;28;20112;-31
2023/10/24 01:45:25;;;;;;;7.10;4.40;;;9.60;99.90;;;;;;5049794;28;20401;-31
2023/10/24 01:47:51;;;;;;;6.60;4.82;;;9.70;99.90;;;;;;5044817;28;20021;-31
2023/10/24 01:50:16;;;;;;;7.18;4.10;;;9.60;99.90;;;;;;5042392;28;20119;-36
2023/10/24 01:52:43;;;;;;;4.75;4.00;;;9.50;99.90;;;;;;5045581;28;20054;-33
2023/10/24 01:55:08;;;;;;;8.75;4.88;;;9.60;99.90;;;;;;5047663;28;20029;-32
2023/10/24 01:57:34;;;;;;;7.28;4.60;;;9.70;99.90;;;;;;5045428;28;20028;-37
2023/10/24 02:00:00;;;;;;;4.45;4.05;;;9.60;99.90;;;;;;5043699;28;20048;-32
2023/10/24 02:02:26;;;;;;;5.30;4.30;;;9.50;99.90;;;;;;5046179;28;20037;-34
2023/10/24 02:04:52;;;;;;;8.02;4.60;;;9.40;99.90;;;;;;5045790;28;20037;-31
2023/10/24 02:07:19;;;;;;;7.50;4.50;;;9.50;99.90;;;;;;5049525;28;20090;-33
2023/10/24 02:09:45;;;;;;;4.20;3.80;;;9.50;99.90;;;;;;5045539;28;20233;-31
2023/10/24 02:12:11;;;;;;;5.07;4.30;;;9.60;99.90;;;;;;5046442;28;20039;-35
2023/10/24 02:14:37;;;;;;;6.30;4.50;;;9.60;99.90;;;;;;5045458;28;20044;-34
2023/10/24 02:17:03;;;;;;;6.03;4.20;;;9.50;99.90;;;;;;5045514;28;20162;-31
2023/10/24 02:19:29;;;;;;;5.38;4.30;;;9.40;99.90;;;;;;5047525;28;20120;-31
2023/10/24 02:21:54;;;;;;;5.40;4.60;;;9.50;99.90;;;;;;5045995;28;20179;-33
2023/10/24 02:24:20;;;;;;;5.20;4.18;;;9.60;99.90;;;;;;5044860;28;20485;-30
2023/10/24 02:26:46;;;;;;;4.82;4.40;;;9.50;99.90;;;;;;5027972;28;20025;-31
2023/10/24 02:29:11;;;;;;;6.47;4.50;;;9.40;99.90;;;;;;5047160;28;20037;-32
2023/10/24 02:31:37;;;;;;;6.00;4.38;;;9.40;99.90;;;;;;5040279;28;20364;-31
2023/10/24 02:34:03;;;;;;;5.68;4.50;;;9.40;99.90;;;;;;5044883;28;20047;-31
2023/10/24 02:36:28;;;;;;;6.85;4.70;;;9.40;99.90;;;;;;5041814;28;20067;-32
2023/10/24 02:38:54;;;;;;;5.57;4.78;;;9.40;99.90;;;;;;5047137;28;20032;-32
2023/10/24 02:41:19;;;;;;;8.55;4.53;;;9.40;99.90;;;;;;5043942;28;20048;-31
2023/10/24 02:43:45;;;;;;;5.88;4.45;;;9.40;99.90;;;;;;5047418;28;20163;-40
2023/10/24 02:46:11;;;;;;;6.50;4.50;;;9.40;99.90;;;;;;5043804;28;20029;-40
2023/10/24 02:48:37;;;;;;;5.78;4.75;;;9.40;99.90;;;;;;5043426;28;20040;-39
2023/10/24 02:51:02;;;;;;;7.45;4.68;;;9.40;99.90;;;;;;5044806;28;20036;-42
2023/10/24 02:53:29;;;;;;;5.78;4.90;;;9.40;99.90;;;;;;5045462;28;20032;-41
2023/10/24 02:55:55;;;;;;;5.38;4.15;;;9.30;99.90;;;;;;5044999;28;20029;-41
2023/10/24 02:58:20;;;;;;;5.40;3.75;;;9.30;99.90;;;;;;5040774;28;20092;-40
2023/10/24 03:00:46;;;;;;;4.50;4.07;;;9.40;99.90;;;;;;5045357;28;21588;-40
2023/10/24 03:03:12;;;;;;;6.57;4.78;;;9.30;99.90;;;;;;5043088;28;20685;-39
2023/10/24 03:05:38;;;;;;;3.97;3.55;;;9.30;99.90;;;;;;5046694;28;20025;-41
2023/10/24 03:08:05;;;;;;;4.68;3.92;;;9.30;99.90;;;;;;5041898;28;20029;-40
2023/10/24 03:10:31;;;;;;;4.47;4.05;;;9.30;99.90;;;;;;5045076;28;20141;-40
2023/10/24 03:12:57;;;;;;;5.40;3.63;;;9.20;99.90;;;;;;5042661;28;20033;-39
2023/10/24 03:15:22;;;;;;;7.20;3.83;;;9.20;99.90;;;;;;5045274;28;20163;-39
2023/10/24 03:17:48;;;;;;;4.40;4.00;;;9.10;99.90;;;;;;5044533;28;20107;-41
2023/10/24 03:20:14;;;;;;;5.07;4.20;;;9.00;99.90;;;;;;5046134;28;20096;-39
2023/10/24 03:22:40;;;;;;;9.02;4.60;;;9.10;99.90;;;;;;5041505;28;20045;-41
2023/10/24 03:25:07;;;;;;;3.95;3.55;;;9.00;99.90;;;;;;5045430;28;20041;-39
2023/10/24 03:27:32;;;;;;;8.40;4.13;;;8.90;99.90;;;;;;5045134;28;20063;-41
2023/10/24 03:29:59;;;;;;;4.95;3.92;;;8.90;99.90;;;;;;5044989;28;20037;-39
2023/10/24 03:32:26;;;;;;;5.60;4.40;;;8.90;99.90;;;;;;5042205;28;20736;-38
2023/10/24 03:34:52;;;;;;;5.53;4.43;;;8.90;99.90;;;;;;5042872;28;20048;-41
2023/10/24 03:37:17;;;;;;;5.20;3.92;;;9.00;99.90;;;;;;5045857;28;20029;-38
2023/10/24 03:39:43;;;;;;;5.40;3.90;;;8.90;99.90;;;;;;5045290;28;21254;-40
2023/10/24 03:42:13;;;;;;;4.28;3.40;;;9.00;99.90;;;;;;5050292;28;20051;-41
2023/10/24 03:44:39;;;;;;;4.65;3.80;;;9.00;99.90;;;;;;5046443;28;20100;-40
2023/10/24 03:47:05;;;;;;;3.85;3.50;;;9.00;99.90;;;;;;5040251;28;20588;-39
2023/10/24 03:49:31;;;;;;;4.50;4.07;;;8.90;99.90;;;;;;5043592;28;20032;-41
2023/10/24 03:51:57;;;;;;;4.50;3.67;;;8.80;99.90;;;;;;5046276;28;20073;-32
2023/10/24 03:54:23;;;;;;;3.85;3.28;;;8.70;99.90;;;;;;5047219;28;20060;-33
2023/10/24 03:56:48;;;;;;;3.40;3.10;;;8.70;99.90;;;;;;5045362;28;20045;-32
2023/10/24 03:59:14;;;;;;;3.35;3.00;;;8.70;99.90;;;;;;5049167;28;20032;-31
2023/10/24 04:01:41;;;;;;;4.82;3.42;;;8.80;99.90;;;;;;5047396;28;20045;-32
2023/10/24 04:04:06;;;;;;;4.20;3.67;;;8.70;99.90;;;;;;5048987;28;20028;-31
2023/10/24 04:06:34;;;;;;;3.58;3.28;;;8.60;99.90;;;;;;5045020;28;20041;-32
2023/10/24 04:09:04;;;;;;;4.93;3.63;;;8.60;99.90;;;;;;5048580;28;20028;-32
2023/10/24 04:11:30;;;;;;;7.97;4.63;;;8.60;99.90;;;;;;5051964;28;20025;-35
2023/10/24 04:13:56;;;;;;;7.57;5.18;;;8.70;99.90;;;;;;5045988;28;20036;-42
2023/10/24 04:16:21;;;;;;;9.10;4.72;;;8.60;99.90;;;;;;5047003;28;20473;-40
2023/10/24 04:18:47;;;;;;;6.35;4.50;;;8.60;99.90;;;;;;5045877;28;20032;-42
2023/10/24 04:21:16;;;;;;;4.97;4.20;;;8.60;99.90;;;;;;5046230;28;20033;-40
2023/10/24 04:23:42;;;;;;;5.13;4.00;;;8.50;99.90;;;;;;5041377;28;20029;-41
2023/10/24 04:26:09;;;;;;;7.00;4.07;;;8.60;99.90;;;;;;5043223;28;20095;-42
2023/10/24 04:28:35;;;;;;;5.65;3.90;;;8.60;99.90;;;;;;5045416;28;20028;-37
2023/10/24 04:31:00;;;;;;;4.68;3.78;;;8.60;99.90;;;;;;5044844;28;20444;-39
2023/10/24 04:33:26;;;;;;;5.25;4.35;;;8.60;99.90;;;;;;5049228;28;20041;-41
2023/10/24 04:35:51;;;;;;;6.10;4.60;;;8.40;99.90;;;;;;5044666;28;20096;-40
2023/10/24 04:38:18;;;;;;;6.55;4.95;;;8.40;99.90;;;;;;5046876;28;20490;-41
2023/10/24 04:40:43;;;;;;;5.57;4.88;;;8.40;99.90;;;;;;5043564;28;20033;-37
2023/10/24 04:43:09;;;;;;;6.25;4.57;;;8.50;99.90;;;;;;5049147;28;20030;-43
2023/10/24 04:45:35;;;;;;;8.70;5.30;;;8.50;99.90;;;;;;5047297;28;20036;-35
2023/10/24 04:48:02;;;;;;;6.57;5.07;;;8.60;99.90;;;;;;5047387;28;20032;-39
2023/10/24 04:50:28;;;;;;;6.53;5.82;;;8.50;99.90;;;;;;5043718;28;20037;-38
2023/10/24 04:52:54;;;;;;;6.93;5.53;;;8.50;99.90;;;;;;5049193;28;20394;-39
2023/10/24 04:55:20;;;;;;;6.75;5.40;;;8.50;99.90;;;;;;5044199;28;20037;-38
2023/10/24 04:57:46;;;;;;;8.32;5.55;;;8.60;99.90;;;;;;5048769;28;20375;-40
2023/10/24 05:00:12;;;;;;;8.05;5.28;;;8.60;99.90;;;;;;5048095;28;20038;-38
2023/10/24 05:02:39;;;;;;;6.15;5.03;;;8.60;99.90;;;;;;5043655;28;20124;-39
2023/10/24 05:05:05;;;;;;;7.25;5.32;;;8.70;99.90;;;;;;5045711;28;20021;-38
2023/10/24 05:07:31;;;;;;;7.25;5.40;;;8.70;99.90;;;;;;5044170;28;20036;-41
2023/10/24 05:09:56;;;;;;;6.97;4.70;;;8.80;99.90;;;;;;5047301;28;20553;-39
2023/10/24 05:12:22;;;;;;;5.00;4.40;;;8.80;99.90;;;;;;5044737;28;20040;-39
2023/10/24 05:14:48;;;;;;;4.38;3.97;;;8.70;99.90;;;;;;5047129;28;20021;-40
2023/10/24 05:17:14;;;;;;;5.53;4.40;;;8.70;99.90;;;;;;5044886;28;20465;-39
2023/10/24 05:19:43;;;;;;;4.57;4.10;;;8.70;99.90;;;;;;5046971;28;20037;-37
2023/10/24 05:22:10;;;;;;;4.75;4.35;;;8.70;99.90;;;;;;5044759;28;20479;-42
2023/10/24 05:24:37;;;;;;;5.18;3.88;;;8.60;99.90;;;;;;5042830;28;20083;-42
2023/10/24 05:27:04;;;;;;;4.60;3.40;;;8.60;99.90;;;;;;5046589;28;20040;-40
2023/10/24 05:29:33;;;;;;;5.13;3.83;;;8.50;99.90;;;;;;5042834;28;20041;-40
2023/10/24 05:31:59;;;;;;;4.80;4.30;;;8.60;99.90;;;;;;5043933;28;20053;-40
2023/10/24 05:34:28;;;;;;;4.75;3.80;;;8.60;99.90;;;;;;5043142;28;20573;-41
2023/10/24 05:36:54;;;;;;;5.72;4.32;;;8.60;99.90;;;;;;5050413;28;20648;-39
2023/10/24 05:39:20;;;;;;;5.88;4.80;;;8.70;99.90;;;;;;5046092;28;20047;-40
2023/10/24 05:41:46;;;;;;;7.43;5.45;;;8.60;99.90;;;;;;5048556;28;20123;-36
2023/10/24 05:44:12;;;;;;;9.93;5.28;;;8.60;99.90;;;;;;5047147;28;20041;-34
2023/10/24 05:46:38;;;;;;;6.22;5.63;;;8.60;99.90;;;;;;5042878;28;20043;-33
2023/10/24 05:49:04;;;;;;;7.63;4.78;;;8.70;99.90;;;;;;5043988;28;20029;-40
2023/10/24 05:51:30;;;;;;;7.80;5.45;;;8.70;99.90;;;;;;5044740;28;20017;-42
2023/10/24 05:53:56;;;;;;;8.48;5.43;;;8.80;99.90;;;;;;5044734;28;20032;-40
2023/10/24 05:56:22;;;;;;;7.38;5.05;;;8.80;99.90;;;;;;5045690;28;20112;-41
2023/10/24 05:58:47;;;;;;;6.28;4.82;;;8.80;99.90;;;;;;5043259;28;20108;-42
2023/10/24 06:01:13;;;;;;;6.32;4.78;;;8.70;99.90;;;;;;5044785;28;20091;-40
2023/10/24 06:03:39;;;;;;;6.55;4.97;;;8.80;99.90;;;;;;5042017;28;20053;-42
2023/10/24 06:06:05;;;;;;;4.85;4.45;;;8.80;99.90;;;;;;5041423;28;20029;-38
2023/10/24 06:08:31;;;;;;;6.78;4.95;;;8.80;99.90;;;;;;5042096;28;20057;-39
2023/10/24 06:10:58;;;;;;;6.03;5.28;;;8.80;99.90;;;;;;5045350;28;20033;-38
2023/10/24 06:13:24;;;;;;;5.88;4.60;;;8.70;99.90;;;;;;5044867;28;20037;-40
2023/10/24 06:15:50;;;;;;;5.35;4.85;;;8.80;99.90;;;;;;5045110;28;20033;-36
2023/10/24 06:18:16;;;;;;;6.30;5.07;;;8.70;99.90;;;;;;5041350;28;20782;-36
2023/10/24 06:20:42;;;;;;;6.30;5.70;;;8.60;99.90;;;;;;5044115;28;20583;-40
2023/10/24 06:23:07;;;;;;;7.22;5.20;;;8.60;99.90;;;;;;5045732;28;20053;-39
2023/10/24 06:25:51;;;;;;;7.45;5.57;;;8.60;99.90;;;;;;5041234;28;20045;-38
2023/10/24 06:28:17;;;;;;;6.47;5.50;;;8.60;99.90;;;;;;5043996;28;20037;-36
2023/10/24 06:30:42;;;;;;;9.52;5.85;;;8.60;99.90;;;;;;5040975;28;20052;-39
2023/10/24 06:33:08;;;;;;;7.50;6.00;;;8.50;99.90;;;;;;5041934;28;20375;-41
2023/10/24 06:35:34;;;;;;;7.50;5.93;;;8.50;99.90;;;;;;5042998;28;20048;-34
2023/10/24 06:37:59;;;;;;;6.95;6.25;;;8.60;99.90;;;;;;5042674;28;20047;-40
2023/10/24 06:40:25;;;;;;;8.27;6.28;;;8.60;99.90;;;;;;5041843;28;20032;-42
2023/10/24 06:42:51;;;;;;;6.72;5.70;;;8.70;99.90;;;;;;5040990;28;20036;-38
2023/10/24 06:45:17;;;;;;;7.60;6.07;;;8.70;99.90;;;;;;5044583;28;20032;-38
2023/10/24 06:47:42;;;;;;;6.47;5.88;;;8.80;99.90;;;;;;5039845;28;20500;-38
2023/10/24 06:50:08;;;;;;;8.35;5.70;;;8.80;99.90;;;;;;5044925;28;20044;-40
2023/10/24 06:52:34;;;;;;;9.75;6.30;;;8.80;99.90;;;;;;5044477;28;20102;-33
2023/10/24 06:55:00;;;;;;;11.00;7.45;;;8.90;99.90;;;;;;5048374;28;20029;-42
2023/10/24 06:57:25;;;;;;;10.07;7.40;;;8.90;99.90;;;;;;5046165;28;20029;-38
2023/10/24 06:59:51;;;;;;;9.35;6.68;;;8.90;99.90;;;;;;5045208;28;20470;-39
2023/10/24 07:02:18;;;;;;;7.25;6.32;;;8.90;99.90;;;;;;5046188;28;20441;-36
2023/10/24 07:04:44;;;;;;;7.72;5.85;;;9.00;99.90;;;;;;5043726;28;20033;-38
2023/10/24 07:07:09;;;;;;;9.63;6.05;;;9.00;99.90;;;;;;5043451;28;20082;-41
2023/10/24 07:09:35;;;;;;;10.70;6.80;;;9.00;99.90;;;;;;5042827;28;20032;-37
2023/10/24 07:12:00;;;;;;;10.40;6.90;;;9.10;99.90;;;;;;5044771;28;20060;-40
2023/10/24 07:14:26;;;;;;;9.05;6.38;;;9.10;99.90;;;;;;5043893;28;20056;-41
2023/10/24 07:16:52;;;;;;;9.30;6.93;;;9.10;99.90;;;;;;5044645;28;20112;-40
2023/10/24 07:19:18;;;;;;;8.07;6.97;;;9.20;99.90;;;;;;5044344;28;20074;-40
2023/10/24 07:21:44;;;;;;;9.75;7.00;;;9.20;99.90;;;;;;5045373;28;20096;-31
2023/10/24 07:24:09;;;;;;;9.65;6.45;;;9.20;99.90;;;;;;5040037;28;20124;-35
2023/10/24 07:26:35;;;;;;;8.18;6.60;;;9.20;99.90;;;;;;5045892;28;20086;-33
2023/10/24 07:29:01;;;;;;;9.93;6.70;;;9.20;99.90;;;;;;5047852;28;20037;-32
2023/10/24 07:31:27;;;;;;;13.40;7.88;;;9.30;99.90;;;;;;5052547;28;20087;-32
2023/10/24 07:33:53;;;;;;;14.18;7.55;;;9.30;99.90;;;;;;5049666;28;20108;-33
2023/10/24 07:36:18;;;;;;;10.00;7.30;;;9.30;99.90;;;;;;5049385;28;20059;-33
2023/10/24 07:38:44;;;;;;;9.85;6.97;;;9.30;99.90;;;;;;5047859;28;20021;-32
2023/10/24 07:41:10;;;;;;;12.40;7.13;;;9.30;99.90;;;;;;5050020;28;20032;-32
2023/10/24 07:43:37;;;;;;;8.10;6.82;;;9.30;99.90;;;;;;5048133;28;20087;-33
2023/10/24 07:46:03;;;;;;;11.93;7.10;;;9.40;99.90;;;;;;5054125;28;20028;-31
2023/10/24 07:48:29;;;;;;;13.45;8.20;;;9.40;99.90;;;;;;5046157;28;20032;-30
2023/10/24 07:50:56;;;;;;;9.80;7.13;;;9.50;99.90;;;;;;5048525;28;20116;-30
2023/10/24 07:53:23;;;;;;;9.50;7.82;;;9.50;99.90;;;;;;5046387;28;20104;-33
2023/10/24 07:55:50;;;;;;;10.60;7.93;;;9.50;99.90;;;;;;5047477;28;20563;-34
2023/10/24 07:58:16;;;;;;;9.00;7.35;;;9.60;99.90;;;;;;5048546;28;20021;-33
2023/10/24 08:00:46;;;;;;;10.75;7.72;;;9.60;99.90;;;;;;5048729;28;20067;-30
2023/10/24 08:03:13;;;;;;;8.80;7.25;;;9.70;99.90;;;;;;5044245;28;20056;-30
2023/10/24 08:05:39;;;;;;;9.63;6.65;;;9.70;99.90;;;;;;5045416;28;20033;-32
2023/10/24 08:08:05;;;;;;;9.05;7.50;;;9.80;99.90;;;;;;5047024;28;20117;-30
2023/10/24 08:10:35;;;;;;;11.20;7.63;;;9.90;99.90;;;;;;5049062;28;20655;-33
2023/10/24 08:13:01;;;;;;;13.73;7.22;;;9.90;99.90;;;;;;5048844;28;20025;-31
2023/10/24 08:15:28;;;;;;;10.02;7.53;;;9.90;99.90;;;;;;5049622;28;20043;-30
2023/10/24 08:17:54;;;;;;;12.07;7.38;;;9.90;99.90;;;;;;5049957;28;20043;-30
2023/10/24 08:20:20;;;;;;;12.63;7.47;;;9.90;99.90;;;;;;5050150;28;20500;-33
2023/10/24 08:22:46;;;;;;;12.75;7.55;;;9.90;99.90;;;;;;5048625;28;20053;-30
2023/10/24 08:25:12;;;;;;;10.85;7.05;;;9.90;99.90;;;;;;5044536;28;20108;-30
2023/10/24 08:27:38;;;;;;;11.48;7.80;;;10.00;99.90;;;;;;5047728;28;20465;-30
2023/10/24 08:30:05;;;;;;;11.13;7.45;;;10.00;99.90;;;;;;5048047;28;20135;-30
2023/10/24 08:32:30;;;;;;;9.73;7.75;;;10.00;99.90;;;;;;5049492;28;20032;-39
2023/10/24 08:34:56;;;;;;;12.43;8.35;;;10.10;99.90;;;;;;5045484;28;20033;-36
2023/10/24 08:37:22;;;;;;;11.65;8.50;;;10.10;99.90;;;;;;5039827;28;20029;-37
2023/10/24 08:39:48;;;;;;;19.60;10.68;;;10.20;99.90;;;;;;5048641;28;20463;-39
2023/10/24 08:42:15;;;;;;;16.98;9.77;;;10.30;99.90;;;;;;5046151;28;20072;-40
2023/10/24 08:44:41;;;;;;;15.88;9.65;;;10.40;99.90;;;;;;5048438;28;20116;-39
2023/10/24 08:47:08;;;;;;;12.93;9.98;;;10.40;99.90;;;;;;5047652;28;20076;-38
2023/10/24 08:49:36;;;;;;;12.90;9.40;;;10.40;99.90;;;;;;5047876;28;20029;-38
2023/10/24 08:52:02;;;;;;;;;;;10.50;99.90;;;;;;5049020;28;20104;-38
2023/10/24 08:54:28;;;;;;;16.48;9.73;;;10.50;99.90;;;;;;5047334;28;19912;-39
2023/10/24 08:56:54;;;;;;;13.07;10.50;;;10.60;99.90;;;;;;5047549;28;20048;-39
2023/10/24 08:59:21;;;;;;;14.88;10.30;;;10.60;99.90;;;;;;5047666;28;20060;-39
2023/10/24 09:01:48;;;;;;;18.40;10.45;;;10.60;99.90;;;;;;5044135;28;20065;-37
2023/10/24 09:04:15;;;;;;;15.80;10.20;;;10.60;99.90;;;;;;5046691;28;20039;-39
2023/10/24 09:06:40;;;;;;;14.38;10.13;;;10.60;99.90;;;;;;5045657;28;20807;-40
2023/10/24 09:09:06;;;;;;;17.92;10.55;;;10.60;99.90;;;;;;5044199;28;20033;-40
2023/10/24 09:12:14;;;;;;;17.60;10.95;;;10.60;99.90;;;;;;5044856;28;20025;-39
2023/10/24 09:14:44;;;;;;;15.60;9.63;;;10.70;99.90;;;;;;4979821;28;20531;-40
2023/10/24 09:17:12;;;;;;;14.68;10.23;;;10.70;99.90;;;;;;4981447;28;20069;-40
2023/10/24 09:19:42;;;;;;;21.77;10.87;;;10.70;99.90;;;;;;5010958;28;20147;-40
2023/10/24 09:22:08;;;;;;;15.77;10.80;;;10.70;99.90;;;;;;5042590;28;20059;-38
2023/10/24 09:24:38;;;;;;;16.35;9.77;;;10.80;99.90;;;;;;5044843;28;20398;-39
2023/10/24 09:27:04;;;;;;;15.77;10.30;;;10.80;99.90;;;;;;5045047;28;20043;-40
2023/10/24 09:29:32;;;;;;;12.63;9.63;;;10.80;99.90;;;;;;5046438;28;20037;-39
2023/10/24 09:31:58;;;;;;;15.38;9.95;;;10.90;99.90;;;;;;5045575;28;20033;-40
2023/10/24 09:34:24;;;;;;;14.48;9.20;;;10.90;99.90;;;;;;5046830;28;20025;-39
2023/10/24 09:36:50;;;;;;;13.13;9.45;;;10.90;99.90;;;;;;5045366;28;20032;-39
2023/10/24 09:39:16;;;;;;;16.25;10.60;;;10.90;99.90;;;;;;5046202;28;20032;-37
2023/10/24 09:41:47;;;;;;;14.10;9.65;;;10.90;99.90;;;;;;5044652;28;20040;-31
2023/10/24 09:44:13;;;;;;;15.50;10.15;;;10.90;99.90;;;;;;5045970;28;20032;-31
2023/10/24 09:46:39;;;;;;;14.35;9.93;;;11.00;99.90;;;;;;5048505;28;20094;-30
2023/10/24 09:49:07;;;;;;;16.17;10.00;;;11.10;99.90;;;;;;5049296;28;20029;-30
2023/10/24 09:51:37;;;;;;;16.20;10.70;;;11.10;99.90;;;;;;5047286;28;20040;-31
2023/10/24 09:54:05;;;;;;;17.05;10.40;;;11.10;99.90;;;;;;5047005;28;21234;-30
2023/10/24 09:56:31;;;;;;;13.88;10.77;;;11.20;99.90;;;;;;5045977;28;20394;-29
2023/10/24 09:58:58;;;;;;;15.57;11.52;;;11.20;99.90;;;;;;5047133;28;20041;-30
2023/10/24 10:01:28;;;;;;;20.08;11.32;;;11.30;99.90;;;;;;5046447;28;20171;-31
2023/10/24 10:03:57;;;;;;;19.30;11.57;;;11.30;99.90;;;;;;5045371;28;20711;-38
2023/10/24 10:06:25;;;;;;;18.30;12.13;;;11.30;99.90;;;;;;5045909;28;20032;-39
2023/10/24 10:08:55;;;;;;;16.30;12.07;;;11.30;99.90;;;;;;5043095;28;20033;-39
2023/10/24 10:11:22;;;;;;;15.57;11.95;;;11.30;99.90;;;;;;5045724;28;20028;-39
2023/10/24 10:14:03;;;;;;;17.50;11.98;;;11.30;99.90;;;;;;5045194;28;20496;-38
2023/10/24 10:16:49;;;;;;;18.30;11.55;;;11.30;99.90;;;;;;5041457;28;20501;-40
2023/10/24 10:19:18;;;;;;;17.00;11.52;;;11.30;99.90;;;;;;5044435;28;20430;-37
2023/10/24 10:22:10;;;;;;;17.98;11.88;;;11.30;99.90;;;;;;5044120;28;20745;-39
2023/10/24 10:24:48;;;;;;;16.83;11.82;;;11.40;99.90;;;;;;5044000;28;20032;-39
2023/10/24 10:27:32;;;;;;;18.35;12.15;;;11.40;99.90;;;;;;5044049;28;20409;-38
2023/10/24 10:30:11;;;;;;;17.27;11.20;;;11.40;99.90;;;;;;5044740;28;20037;-39
2023/10/24 10:33:00;;;;;;;15.40;10.82;;;11.40;99.90;;;;;;5044418;28;20052;-40
2023/10/24 10:35:54;;;;;;;16.02;10.80;;;11.50;99.90;;;;;;5044484;28;20020;-39
2023/10/24 10:38:37;;;;;;;15.77;10.32;;;11.60;99.90;;;;;;5042130;28;20415;-38
2023/10/24 10:41:21;;;;;;;15.77;11.10;;;11.70;99.90;;;;;;5044054;28;20049;-38
2023/10/24 10:43:53;;;;;;;16.83;10.75;;;11.70;99.90;;;;;;5043260;28;20033;-38
2023/10/24 10:46:29;;;;;;;17.25;10.80;;;11.80;99.90;;;;;;5044488;28;20031;-40
2023/10/24 10:49:03;;;;;;;17.58;11.30;;;11.90;99.90;;;;;;5043222;28;20120;-40
2023/10/24 10:51:38;;;;;;;13.77;10.05;;;11.90;99.90;;;;;;5045688;28;20021;-39
2023/10/24 10:54:07;;;;;;;14.57;10.48;;;12.00;99.90;;;;;;5042373;28;20567;-40
2023/10/24 10:56:35;;;;;;;15.25;10.30;;;12.00;99.90;;;;;;5045250;28;20082;-40
2023/10/24 10:59:07;;;;;;;16.73;11.00;;;12.00;99.90;;;;;;5046185;28;20040;-41
2023/10/24 11:01:57;;;;;;;14.32;10.10;;;12.10;99.90;;;;;;5043308;28;20454;-40
2023/10/24 11:04:23;;;;;;;12.95;9.52;;;12.10;99.90;;;;;;5044726;28;20071;-40
2023/10/24 11:06:56;;;;;;;15.32;10.13;;;12.10;99.90;;;;;;5044570;28;20482;-41
2023/10/24 11:09:31;;;;;;;14.20;10.10;;;12.10;99.90;;;;;;5045290;28;20040;-39
2023/10/24 11:12:27;;;;;;;15.15;9.35;;;12.20;99.90;;;;;;5042039;28;20033;-39
2023/10/24 11:15:11;;;;;;;14.95;9.93;;;12.20;99.90;;;;;;5042821;28;20031;-38
2023/10/24 11:17:37;;;;;;;14.63;10.05;;;12.30;99.90;;;;;;5044039;28;20033;-38
2023/10/24 11:20:08;;;;;;;11.65;9.63;;;12.30;99.90;;;;;;5043536;28;20040;-39
2023/10/24 11:22:34;;;;;;;12.77;8.32;;;12.30;99.90;;;;;;5046414;28;20051;-35
2023/10/24 11:25:05;;;;;;;12.48;8.23;;;12.30;99.90;;;;;;5045040;28;20414;-37
2023/10/24 11:27:30;;;;;;;9.50;7.57;;;12.20;99.90;;;;;;5044165;28;20029;-39
2023/10/24 11:29:56;;;;;;;11.30;7.95;;;12.20;99.90;;;;;;5043418;28;20048;-38
2023/10/24 11:32:22;;;;;;;11.55;7.63;;;12.10;99.90;;;;;;5039417;28;20029;-38
2023/10/24 11:34:47;;;;;;;12.75;8.30;;;12.00;99.90;;;;;;5045450;28;20021;-40
2023/10/24 11:37:13;;;;;;;10.20;8.77;;;12.00;99.90;;;;;;5044181;28;20029;-39
2023/10/24 11:39:42;;;;;;;10.63;7.75;;;12.10;99.90;;;;;;5043068;28;20036;-36
2023/10/24 11:42:08;;;;;;;11.13;8.52;;;12.10;99.90;;;;;;5044493;28;20041;-37
2023/10/24 11:44:34;;;;;;;11.48;8.82;;;12.10;99.90;;;;;;5043093;28;20040;-36
2023/10/24 11:47:02;;;;;;;12.05;9.38;;;12.00;99.90;;;;;;5043242;28;20127;-39
2023/10/24 11:49:36;;;;;;;12.27;9.27;;;11.90;99.90;;;;;;5044130;28;20048;-39
2023/10/24 11:52:04;;;;;;;14.65;10.38;;;11.80;99.90;;;;;;5044805;28;20402;-39
2023/10/24 11:54:30;;;;;;;12.27;8.70;;;11.80;99.90;;;;;;5043227;28;20788;-39
2023/10/24 11:56:56;;;;;;;9.77;7.35;;;11.70;99.90;;;;;;5043948;28;20590;-40
2023/10/24 11:59:22;;;;;;;11.23;8.90;;;11.60;99.90;;;;;;5045292;28;20068;-37
2023/10/24 12:01:47;;;;;;;13.20;9.18;;;11.60;99.90;;;;;;5043046;28;20069;-39
2023/10/24 12:04:13;;;;;;;13.55;10.10;;;11.50;99.90;;;;;;5045734;28;20029;-40
2023/10/24 12:06:39;;;;;;;12.07;8.05;;;11.50;99.90;;;;;;5044601;28;20390;-40
2023/10/24 12:09:06;;;;;;;10.63;8.60;;;11.50;99.90;;;;;;5045078;28;20115;-42
2023/10/24 12:11:35;;;;;;;7.35;6.07;;;11.60;99.90;;;;;;5041912;28;20649;-41
2023/10/24 12:14:01;;;;;;;9.35;7.50;;;11.60;99.90;;;;;;5048235;28;20052;-41
2023/10/24 12:16:31;;;;;;;12.70;7.65;;;11.60;99.90;;;;;;5048148;28;20025;-40
2023/10/24 12:18:59;;;;;;;11.32;7.30;;;11.70;99.90;;;;;;5048201;28;20115;-37
2023/10/24 12:21:25;;;;;;;10.05;7.75;;;11.70;99.90;;;;;;5049273;28;20022;-42
2023/10/24 12:23:50;;;;;;;9.68;7.03;;;11.70;99.90;;;;;;5043855;28;20029;-41
2023/10/24 12:26:16;;;;;;;9.15;7.05;;;11.70;99.90;;;;;;5046004;28;20040;-32
2023/10/24 12:28:44;;;;;;;9.60;6.72;;;11.70;99.90;;;;;;5048300;28;20033;-39
2023/10/24 12:31:11;;;;;;;8.00;6.10;;;11.70;99.90;;;;;;5046244;28;20029;-41
2023/10/24 12:33:37;;;;;;;7.03;5.65;;;11.80;99.90;;;;;;5046530;28;20399;-37
2023/10/24 12:36:06;;;;;;;7.90;5.78;;;11.80;99.90;;;;;;5047359;28;20078;-40
2023/10/24 12:38:32;;;;;;;7.10;6.15;;;11.70;99.90;;;;;;5045683;28;20025;-42
2023/10/24 12:40:58;;;;;;;7.55;5.72;;;11.80;99.90;;;;;;5046785;28;20025;-40
2023/10/24 12:43:37;;;;;;;7.10;6.00;;;11.90;99.90;;;;;;5045739;28;20048;-30
2023/10/24 12:46:03;;;;;;;5.45;4.85;;;11.90;99.90;;;;;;5048777;28;20143;-30
2023/10/24 12:48:29;;;;;;;7.32;5.45;;;11.90;99.90;;;;;;5048824;28;20390;-31